Time;durP1;ratioP1;P1;durP2;ratioP2;P2;SDS_P1;SDS_P2;PMS_P1;PMS_P2;Temp;Humidity;BMP_temperature;BMP_pressure;BME280_temperature;BME280_humidity;BME280_pressure;Samples;Min_cycle;Max_cycle;Signal;HPM_P1;HPM_P2
2023/12/28 00:02:15;;;;;;;1.33;1.10;;;;;;;9.57;95.98;99904.09;4904222;29;20549;-69
2023/12/28 00:04:41;;;;;;;2.38;1.35;;;;;;;9.49;95.99;99910.50;4935929;28;20602;-69
2023/12/28 00:07:06;;;;;;;1.55;1.15;;;;;;;9.51;95.94;99899.38;4921104;29;20044;-69
2023/12/28 00:09:32;;;;;;;1.70;0.95;;;;;;;9.54;96.20;99901.34;4920343;29;20040;-70
2023/12/28 00:11:58;;;;;;;1.52;1.08;;;;;;;9.56;96.07;99905.22;4921352;29;20399;-70
2023/12/28 00:14:24;;;;;;;1.02;0.70;;;;;;;9.67;94.58;99902.66;4919483;29;20023;-70
2023/12/28 00:16:49;;;;;;;1.65;1.23;;;;;;;9.64;94.64;99896.09;4934729;29;20047;-70
2023/12/28 00:19:15;;;;;;;1.27;0.90;;;;;;;9.70;94.65;99902.69;4918566;29;20597;-69
2023/12/28 00:21:41;;;;;;;7.40;1.30;;;;;;;9.71;94.52;99906.16;4918531;29;20506;-70
2023/12/28 00:24:06;;;;;;;1.33;0.77;;;;;;;9.80;93.22;99912.03;4919744;29;20044;-69
2023/12/28 00:26:32;;;;;;;0.55;0.55;;;;;;;9.77;93.62;99902.00;4934964;28;20054;-70
2023/12/28 00:29:03;;;;;;;0.75;0.75;;;;;;;9.77;93.13;99907.38;4919441;29;20042;-70
2023/12/28 00:31:28;;;;;;;1.23;0.82;;;;;;;9.77;92.80;99915.44;4902418;29;20051;-69
2023/12/28 00:33:56;;;;;;;1.25;0.95;;;;;;;9.68;93.12;99909.56;4919467;29;20126;-69
2023/12/28 00:36:23;;;;;;;0.93;0.70;;;;;;;9.81;92.16;99916.28;4910186;29;20019;-70
2023/12/28 00:38:48;;;;;;;0.90;0.60;;;;;;;9.87;92.02;99922.88;4919097;29;20575;-69
2023/12/28 00:41:14;;;;;;;0.88;0.60;;;;;;;9.87;91.70;99912.88;4912480;29;20043;-69
2023/12/28 00:43:39;;;;;;;0.98;0.70;;;;;;;9.99;90.82;99923.38;4920121;29;20015;-69
2023/12/28 00:46:04;;;;;;;0.70;0.65;;;;;;;9.89;91.02;99939.41;4918590;29;20051;-70
2023/12/28 00:48:30;;;;;;;0.47;0.47;;;;;;;10.06;90.25;99930.75;4919702;29;20685;-70
2023/12/28 00:50:56;;;;;;;0.98;0.60;;;;;;;9.89;91.20;99940.16;4910878;29;20509;-70
2023/12/28 00:53:21;;;;;;;0.80;0.80;;;;;;;9.85;92.46;99933.22;4927072;29;20035;-70
2023/12/28 00:55:47;;;;;;;1.05;0.80;;;;;;;9.86;93.07;99942.81;4929507;29;20103;-70
2023/12/28 00:58:13;;;;;;;0.93;0.70;;;;;;;9.80;93.48;99933.53;4924872;29;20027;-70
2023/12/28 01:00:38;;;;;;;3.35;0.63;;;;;;;9.79;93.44;99938.13;4926102;29;20051;-70
2023/12/28 01:03:04;;;;;;;1.73;0.90;;;;;;;9.63;94.18;99939.47;4927044;29;20042;-70
2023/12/28 01:05:29;;;;;;;0.95;0.75;;;;;;;9.79;94.51;99938.13;4904325;29;20023;-70
2023/12/28 01:07:55;;;;;;;1.95;1.15;;;;;;;9.78;94.33;99933.13;4924661;29;20035;-69
2023/12/28 01:10:21;;;;;;;2.92;0.93;;;;;;;9.87;94.24;99925.56;4906707;29;20027;-70
2023/12/28 01:12:46;;;;;;;0.70;0.70;;;;;;;9.99;93.48;99930.66;4925956;29;20024;-70
2023/12/28 01:15:12;;;;;;;0.77;0.70;;;;;;;9.95;94.02;99930.63;4929300;29;20111;-70
2023/12/28 01:17:37;;;;;;;3.15;1.00;;;;;;;10.00;93.82;99942.97;4944072;29;20410;-69
2023/12/28 01:20:04;;;;;;;0.50;0.50;;;;;;;9.96;94.30;99951.03;4927578;29;20028;-70
2023/12/28 01:22:29;;;;;;;1.08;1.00;;;;;;;9.89;94.54;99952.84;4920828;29;20542;-70
2023/12/28 01:24:55;;;;;;;1.38;0.65;;;;;;;9.98;94.67;99948.75;4952994;28;20060;-69
2023/12/28 01:27:20;;;;;;;0.77;0.60;;;;;;;9.98;95.14;99967.56;4904401;29;20055;-70
2023/12/28 01:29:46;;;;;;;1.35;0.70;;;;;;;10.00;95.30;99964.50;4906890;29;20463;-69
2023/12/28 01:32:11;;;;;;;4.45;1.13;;;;;;;9.97;95.46;99955.25;4922239;29;21579;-70
2023/12/28 01:34:37;;;;;;;0.85;0.73;;;;;;;10.02;95.17;99943.38;4923586;29;20479;-70
2023/12/28 01:37:02;;;;;;;2.38;0.77;;;;;;;10.00;95.11;99945.69;4923619;29;20236;-70
2023/12/28 01:39:28;;;;;;;2.45;0.93;;;;;;;10.09;94.55;99943.47;4926805;29;20055;-70
2023/12/28 01:41:53;;;;;;;0.95;0.60;;;;;;;10.01;95.64;99939.13;4930896;29;20043;-70
2023/12/28 01:44:19;;;;;;;0.93;0.80;;;;;;;10.01;96.23;99942.59;4928094;29;20118;-70
2023/12/28 01:46:46;;;;;;;5.10;0.70;;;;;;;10.07;95.50;99953.81;4918681;29;20039;-70
2023/12/28 01:49:12;;;;;;;1.13;0.77;;;;;;;10.01;95.97;99972.19;4917063;29;20395;-70
2023/12/28 01:51:38;;;;;;;1.20;0.93;;;;;;;9.87;96.56;99961.28;4922555;29;20028;-70
2023/12/28 01:54:03;;;;;;;1.40;1.00;;;;;;;10.03;96.47;99966.44;4922474;29;20032;-70
2023/12/28 01:56:29;;;;;;;1.25;0.85;;;;;;;10.11;96.01;99964.63;4927286;29;20028;-69
2023/12/28 01:58:55;;;;;;;1.52;0.65;;;;;;;10.10;95.73;99963.88;4930246;29;20787;-70
2023/12/28 02:01:21;;;;;;;0.88;0.77;;;;;;;10.07;96.49;99963.78;4923059;29;20033;-69
2023/12/28 02:03:48;;;;;;;1.38;0.85;;;;;;;10.13;96.52;99968.50;4920682;29;20062;-68
2023/12/28 02:06:17;;;;;;;0.55;0.52;;;;;;;10.09;96.21;99972.25;4923072;29;20071;-68
2023/12/28 02:08:42;;;;;;;1.45;0.90;;;;;;;9.97;97.31;99963.31;4915479;29;20491;-68
2023/12/28 02:11:08;;;;;;;0.80;0.80;;;;;;;10.08;96.46;99973.41;4904878;29;20111;-69
2023/12/28 02:13:35;;;;;;;1.52;0.73;;;;;;;10.23;95.75;99969.75;4930113;29;20089;-69
2023/12/28 02:16:06;;;;;;;1.90;0.95;;;;;;;10.09;96.10;99966.88;4925690;29;20548;-68
2023/12/28 02:18:39;;;;;;;1.98;0.98;;;;;;;10.26;95.90;99959.03;4921268;29;20059;-68
2023/12/28 02:21:06;;;;;;;1.90;1.00;;;;;;;10.07;96.60;99969.16;4924105;29;20086;-68
2023/12/28 02:23:33;;;;;;;3.00;0.93;;;;;;;10.07;97.60;99972.63;4937562;29;20098;-68
2023/12/28 02:25:58;;;;;;;0.75;0.75;;;;;;;10.18;96.63;99975.50;4927416;29;20087;-68
2023/12/28 02:28:24;;;;;;;4.13;1.30;;;;;;;10.25;96.05;99980.94;4929950;29;20487;-68
2023/12/28 02:30:49;;;;;;;0.88;0.70;;;;;;;10.29;96.48;99990.59;4926621;29;20177;-69
2023/12/28 02:33:18;;;;;;;1.08;0.98;;;;;;;10.25;96.34;99970.16;4907073;29;20114;-69
2023/12/28 02:36:01;;;;;;;1.80;0.88;;;;;;;10.16;97.22;99997.38;4926647;29;20067;-69
2023/12/28 02:38:29;;;;;;;1.55;0.82;;;;;;;10.27;96.92;99979.44;4924006;29;20071;-69
2023/12/28 02:40:55;;;;;;;1.95;1.75;;;;;;;10.35;95.41;99986.44;4931898;29;20059;-69
2023/12/28 02:43:22;;;;;;;4.13;1.23;;;;;;;10.25;96.18;99989.00;4927068;29;20047;-69
2023/12/28 02:45:47;;;;;;;2.75;1.33;;;;;;;10.26;96.10;99979.81;4926304;29;20074;-68
2023/12/28 02:48:12;;;;;;;0.93;0.85;;;;;;;10.39;95.83;99981.09;4920457;29;20059;-69
2023/12/28 02:50:38;;;;;;;1.05;0.95;;;;;;;10.36;95.78;99971.81;4923724;29;20115;-70
2023/12/28 02:53:03;;;;;;;1.63;1.02;;;;;;;10.45;94.77;99964.22;4921873;29;20027;-68
2023/12/28 02:55:29;;;;;;;2.42;0.95;;;;;;;10.37;94.55;99968.00;4925276;29;20406;-69
2023/12/28 02:57:59;;;;;;;2.00;1.48;;;;;;;10.41;94.88;99971.50;4929691;29;20575;-69
2023/12/28 03:00:24;;;;;;;1.10;1.02;;;;;;;10.38;94.75;99966.84;4926474;29;21224;-69
2023/12/28 03:02:50;;;;;;;1.08;0.85;;;;;;;10.45;94.90;99980.38;4922942;29;20031;-68
2023/12/28 03:05:16;;;;;;;1.20;0.90;;;;;;;10.34;94.96;99973.34;4923014;29;20035;-68
2023/12/28 03:07:42;;;;;;;5.47;1.20;;;;;;;10.32;95.82;99968.31;4923420;29;20090;-68
2023/12/28 03:10:08;;;;;;;1.77;1.13;;;;;;;10.41;94.97;99978.81;4924336;29;20818;-69
2023/12/28 03:12:34;;;;;;;0.80;0.77;;;;;;;10.27;94.87;99979.44;4926980;29;20036;-69
2023/12/28 03:14:59;;;;;;;3.10;1.20;;;;;;;10.31;95.69;99974.88;4945743;29;20043;-68
2023/12/28 03:17:25;;;;;;;1.92;1.23;;;;;;;10.37;94.75;99986.84;4925354;29;20066;-69
2023/12/28 03:19:51;;;;;;;7.32;1.45;;;;;;;10.09;95.71;99983.03;4921256;29;20040;-68
2023/12/28 03:22:17;;;;;;;2.28;1.25;;;;;;;10.38;94.41;99991.06;4914030;29;20031;-69
2023/12/28 03:24:43;;;;;;;1.75;1.23;;;;;;;10.24;95.95;99982.84;4913900;29;20035;-68
2023/12/28 03:27:08;;;;;;;2.83;1.20;;;;;;;10.30;95.16;99986.00;4916318;29;20054;-68
2023/12/28 03:29:34;;;;;;;2.70;1.27;;;;;;;10.24;95.84;99977.47;4929815;29;20028;-69
2023/12/28 03:32:00;;;;;;;1.15;0.90;;;;;;;10.25;95.40;99976.34;4921689;29;20032;-69
2023/12/28 03:34:27;;;;;;;3.67;1.33;;;;;;;10.15;95.91;99971.59;4905470;29;21350;-68
2023/12/28 03:36:52;;;;;;;1.95;1.10;;;;;;;10.30;96.12;99991.38;4920837;29;20106;-68
2023/12/28 03:39:18;;;;;;;2.75;1.23;;;;;;;10.35;95.60;99980.28;4906853;29;20085;-68
2023/12/28 03:41:44;;;;;;;1.45;1.20;;;;;;;10.18;95.51;99984.31;4926578;29;20043;-69
2023/12/28 03:44:10;;;;;;;1.17;0.93;;;;;;;10.35;95.24;99980.28;4913982;29;20019;-69
2023/12/28 03:46:36;;;;;;;2.00;0.98;;;;;;;10.36;94.97;99996.03;4938619;28;21751;-68
2023/12/28 03:49:01;;;;;;;1.20;0.95;;;;;;;10.19;95.19;100003.94;4919789;29;20495;-68
2023/12/28 03:51:27;;;;;;;1.83;1.50;;;;;;;10.38;95.72;100001.84;4920993;29;20043;-68
2023/12/28 03:53:52;;;;;;;1.50;1.13;;;;;;;10.40;94.62;99999.56;4913077;29;20044;-68
2023/12/28 03:56:37;;;;;;;0.80;0.80;;;;;;;10.43;95.30;100006.13;4927276;29;20042;-68
2023/12/28 03:59:02;;;;;;;1.48;1.05;;;;;;;10.49;94.04;99994.63;4930513;29;20055;-70
2023/12/28 04:01:28;;;;;;;1.20;1.00;;;;;;;10.44;94.75;99999.59;4928231;29;20051;-69
2023/12/28 04:03:53;;;;;;;3.15;1.30;;;;;;;10.32;95.97;100000.63;4926770;29;20455;-69
2023/12/28 04:06:19;;;;;;;2.78;1.50;;;;;;;10.40;94.96;100004.94;4921914;29;20044;-69
2023/12/28 04:08:44;;;;;;;1.08;0.70;;;;;;;10.32;95.48;100005.22;4920421;29;20388;-69
2023/12/28 04:11:10;;;;;;;1.40;0.85;;;;;;;10.36;94.87;100000.66;4922262;29;20074;-69
2023/12/28 04:13:36;;;;;;;1.33;1.15;;;;;;;10.41;94.67;99998.41;4940838;28;20535;-69
2023/12/28 04:16:02;;;;;;;1.70;1.08;;;;;;;10.48;94.83;100000.41;4923583;29;20118;-69
2023/12/28 04:18:27;;;;;;;1.27;1.08;;;;;;;10.41;94.53;99997.63;4927569;29;20107;-68
2023/12/28 04:20:54;;;;;;;1.55;0.98;;;;;;;10.37;94.82;100005.69;4918255;29;20032;-70
2023/12/28 04:23:19;;;;;;;1.83;1.33;;;;;;;10.31;95.15;99995.59;4934604;28;20043;-69
2023/12/28 04:25:45;;;;;;;1.52;0.82;;;;;;;10.38;95.09;99988.38;4919971;29;20462;-69
2023/12/28 04:28:10;;;;;;;1.50;1.13;;;;;;;10.43;94.52;99993.41;4922926;29;20023;-69
2023/12/28 04:30:36;;;;;;;1.40;1.08;;;;;;;10.42;94.97;99985.72;4923611;29;20376;-69
2023/12/28 04:33:02;;;;;;;1.42;0.98;;;;;;;10.45;94.87;99991.13;4926145;29;20396;-70
2023/12/28 04:35:28;;;;;;;2.55;1.45;;;;;;;10.43;94.60;99993.41;4927898;29;20538;-69
2023/12/28 04:37:54;;;;;;;0.95;0.70;;;;;;;10.26;94.99;100006.72;4911152;29;20026;-69
2023/12/28 04:40:19;;;;;;;3.10;1.30;;;;;;;10.10;96.37;99990.78;4926748;29;20035;-69
2023/12/28 04:42:45;;;;;;;1.17;0.98;;;;;;;10.27;95.76;99990.19;4926449;29;20036;-70
2023/12/28 04:45:10;;;;;;;1.40;1.30;;;;;;;10.28;95.34;99980.97;4911181;29;20036;-69
2023/12/28 04:47:36;;;;;;;2.80;1.58;;;;;;;10.37;94.77;99988.75;4920137;29;20451;-69
2023/12/28 04:50:05;;;;;;;1.23;1.10;;;;;;;10.31;95.69;99977.56;4921464;29;20035;-69
2023/12/28 04:52:31;;;;;;;1.15;1.05;;;;;;;10.14;96.06;99985.44;4904448;29;20114;-69
2023/12/28 04:54:57;;;;;;;2.67;1.17;;;;;;;10.26;95.64;99969.03;4900802;29;20115;-70
2023/12/28 04:57:27;;;;;;;2.30;1.27;;;;;;;10.29;95.37;99979.06;4927688;29;20059;-69
2023/12/28 04:59:53;;;;;;;1.20;0.80;;;;;;;10.32;95.46;99975.63;4926143;29;20054;-70
2023/12/28 05:02:18;;;;;;;2.15;1.25;;;;;;;10.29;95.60;99977.16;4917412;29;20039;-69
2023/12/28 05:04:44;;;;;;;2.08;1.23;;;;;;;10.15;96.00;99977.00;4920647;29;20082;-69
2023/12/28 05:07:11;;;;;;;1.52;1.05;;;;;;;10.23;95.65;99992.06;4925578;29;20546;-69
2023/12/28 05:09:37;;;;;;;2.47;1.33;;;;;;;10.11;96.68;99994.22;4925845;29;20122;-69
2023/12/28 05:12:03;;;;;;;1.08;0.98;;;;;;;10.18;96.60;99980.88;4932376;29;20514;-69
2023/12/28 05:14:28;;;;;;;1.55;1.00;;;;;;;10.29;95.46;99998.69;4929037;29;20035;-69
2023/12/28 05:16:54;;;;;;;2.03;1.20;;;;;;;10.24;95.90;100003.63;4932094;29;20530;-69
2023/12/28 05:19:20;;;;;;;1.27;0.90;;;;;;;10.33;95.70;100007.56;4928822;29;20518;-69
2023/12/28 05:21:46;;;;;;;2.03;1.50;;;;;;;10.29;95.67;99992.50;4923344;29;20035;-69
2023/12/28 05:24:12;;;;;;;1.77;1.30;;;;;;;10.33;95.51;100004.09;4920847;29;20396;-68
2023/12/28 05:26:38;;;;;;;2.17;1.40;;;;;;;10.37;95.94;100005.69;4924519;29;20525;-69
2023/12/28 05:29:03;;;;;;;1.20;1.10;;;;;;;10.35;96.09;100004.50;4923494;29;20043;-69
2023/12/28 05:31:28;;;;;;;1.10;0.80;;;;;;;10.29;96.19;99987.13;4932039;29;20055;-69
2023/12/28 05:33:54;;;;;;;1.75;1.08;;;;;;;10.35;96.03;99982.97;4949413;28;20396;-69
2023/12/28 05:36:19;;;;;;;3.00;0.82;;;;;;;10.23;96.14;99985.91;4933132;29;20534;-69
2023/12/28 05:38:45;;;;;;;1.52;1.42;;;;;;;10.29;95.72;99987.13;4933515;29;20126;-69
2023/12/28 05:41:11;;;;;;;3.38;1.13;;;;;;;10.37;95.70;99984.16;4928465;29;20134;-69
2023/12/28 05:43:37;;;;;;;2.08;0.98;;;;;;;10.41;95.30;99984.97;4932662;29;20039;-69
2023/12/28 05:46:03;;;;;;;1.55;0.80;;;;;;;10.36;95.79;100006.03;4930814;29;20102;-68
2023/12/28 05:48:28;;;;;;;1.73;1.13;;;;;;;10.35;96.08;100012.56;4932229;29;20035;-69
2023/12/28 05:50:54;;;;;;;2.28;1.27;;;;;;;10.26;95.91;99998.66;4905778;29;20046;-68
2023/12/28 05:53:19;;;;;;;2.53;1.42;;;;;;;10.41;95.87;99994.94;4927888;29;20031;-68
2023/12/28 05:55:45;;;;;;;2.15;1.60;;;;;;;10.43;95.73;99984.59;4925462;28;20066;-69
2023/12/28 05:58:10;;;;;;;2.00;1.00;;;;;;;10.46;95.38;99990.00;4924964;29;20046;-68
2023/12/28 06:00:36;;;;;;;1.50;1.10;;;;;;;10.47;95.43;99999.63;4927455;29;20044;-69
2023/12/28 06:03:02;;;;;;;1.35;1.15;;;;;;;10.49;95.62;99999.25;4933174;29;20035;-68
2023/12/28 06:05:28;;;;;;;1.75;1.15;;;;;;;10.52;95.60;100003.91;4932005;29;20474;-68
2023/12/28 06:07:53;;;;;;;0.93;0.68;;;;;;;10.53;95.40;100010.84;4934100;29;20082;-69
2023/12/28 06:10:19;;;;;;;2.85;1.27;;;;;;;10.54;95.13;100007.00;4910906;29;20040;-68
2023/12/28 06:12:45;;;;;;;1.83;1.15;;;;;;;10.37;95.44;100000.31;4930153;29;20047;-68
2023/12/28 06:15:11;;;;;;;2.05;1.40;;;;;;;10.55;95.48;100005.88;4929154;29;20050;-68
2023/12/28 06:17:36;;;;;;;2.78;1.67;;;;;;;10.57;94.89;99993.56;4927715;29;20048;-69
2023/12/28 06:20:02;;;;;;;3.20;1.58;;;;;;;10.42;95.43;99999.97;4927538;29;20039;-68
2023/12/28 06:22:27;;;;;;;1.25;1.08;;;;;;;10.56;95.63;100007.41;4915197;29;20039;-68
2023/12/28 06:24:56;;;;;;;1.75;1.15;;;;;;;10.49;95.86;100000.00;4905687;29;20063;-68
2023/12/28 06:27:23;;;;;;;2.47;1.30;;;;;;;10.63;95.32;99994.78;4938058;29;20035;-68
2023/12/28 06:29:49;;;;;;;1.00;0.90;;;;;;;10.75;94.62;99999.88;4926653;29;20086;-69
2023/12/28 06:32:14;;;;;;;6.50;1.10;;;;;;;10.72;94.90;99999.88;4926108;29;20039;-68
2023/12/28 06:34:40;;;;;;;1.50;0.95;;;;;;;10.77;94.90;100003.00;4925585;29;20083;-69
2023/12/28 06:37:05;;;;;;;2.50;1.10;;;;;;;10.82;94.64;100005.31;4913598;29;20111;-69
2023/12/28 06:39:31;;;;;;;1.85;1.23;;;;;;;10.83;94.44;99996.13;4929045;29;20042;-69
2023/12/28 06:41:56;;;;;;;1.42;0.88;;;;;;;10.93;94.63;99988.50;4929786;29;20040;-69
2023/12/28 06:44:22;;;;;;;1.40;1.00;;;;;;;10.92;94.44;100003.13;4928048;29;20070;-69
2023/12/28 06:46:47;;;;;;;1.67;0.95;;;;;;;10.99;93.47;99993.16;4931908;29;20050;-69
2023/12/28 06:49:12;;;;;;;1.38;1.10;;;;;;;11.07;93.23;99994.00;4917041;29;20892;-69
2023/12/28 06:51:38;;;;;;;1.20;1.10;;;;;;;11.12;92.84;99989.03;4915781;29;20031;-69
2023/12/28 06:54:04;;;;;;;1.45;0.82;;;;;;;11.13;93.42;99997.88;4923484;29;20124;-68
2023/12/28 06:56:29;;;;;;;8.75;1.17;;;;;;;11.15;93.47;99987.50;4923079;29;20095;-68
2023/12/28 06:58:55;;;;;;;0.82;0.77;;;;;;;11.19;93.28;99993.69;4926294;29;20388;-69
2023/12/28 07:01:20;;;;;;;1.60;0.90;;;;;;;11.20;92.74;99987.16;4930425;29;20039;-69
2023/12/28 07:03:45;;;;;;;2.78;1.25;;;;;;;11.23;92.64;99989.09;4928202;29;20122;-69
2023/12/28 07:06:11;;;;;;;1.45;0.82;;;;;;;11.36;92.16;99979.56;4930812;29;20086;-69
2023/12/28 07:08:36;;;;;;;1.83;0.90;;;;;;;11.31;91.74;99985.28;4927806;29;20067;-69
2023/12/28 07:11:03;;;;;;;1.20;0.77;;;;;;;11.24;91.75;99996.81;4929274;29;20027;-69
2023/12/28 07:13:29;;;;;;;2.92;1.42;;;;;;;10.99;93.36;100005.84;4928877;29;20079;-69
2023/12/28 07:15:54;;;;;;;3.05;1.00;;;;;;;11.24;92.50;99999.50;4912102;29;20491;-69
2023/12/28 07:18:20;;;;;;;2.03;1.35;;;;;;;11.26;92.79;100004.53;4926885;29;20040;-69
2023/12/28 07:20:45;;;;;;;1.30;0.93;;;;;;;11.42;91.86;99996.94;4926481;29;20486;-68
2023/12/28 07:23:11;;;;;;;1.75;0.90;;;;;;;11.42;91.76;100005.78;4922108;29;20044;-69
2023/12/28 07:25:36;;;;;;;6.05;0.90;;;;;;;11.44;91.11;99992.69;4920179;29;20032;-68
2023/12/28 07:28:02;;;;;;;2.17;0.90;;;;;;;11.52;90.41;99977.31;4921982;29;20031;-69
2023/12/28 07:30:27;;;;;;;1.30;1.00;;;;;;;11.59;90.17;99982.78;4926187;29;20506;-69
2023/12/28 07:32:53;;;;;;;1.30;0.88;;;;;;;11.51;90.15;99986.56;4928961;29;20122;-69
2023/12/28 07:35:18;;;;;;;1.13;1.00;;;;;;;11.53;89.50;99995.06;4929314;29;20024;-69
2023/12/28 07:37:44;;;;;;;1.80;1.45;;;;;;;11.52;89.52;99998.88;4929527;29;20050;-69
2023/12/28 07:40:12;;;;;;;1.30;0.93;;;;;;;11.52;89.94;99993.50;4925609;29;20036;-68
2023/12/28 07:42:37;;;;;;;1.33;1.20;;;;;;;11.45;89.98;99988.06;4927638;29;20062;-68
2023/12/28 07:45:03;;;;;;;1.52;1.17;;;;;;;11.36;90.03;99991.09;4930104;29;20672;-69
2023/12/28 07:47:29;;;;;;;2.28;1.13;;;;;;;11.43;90.51;99980.38;4913271;29;20028;-69
2023/12/28 07:49:54;;;;;;;1.02;0.98;;;;;;;11.48;90.10;99987.31;4922114;29;20099;-69
2023/12/28 07:52:20;;;;;;;0.73;0.70;;;;;;;11.58;89.41;99982.00;4921480;28;20142;-69
2023/12/28 07:54:45;;;;;;;1.27;1.00;;;;;;;11.58;90.14;100000.09;4922049;29;20414;-68
2023/12/28 07:57:11;;;;;;;1.88;1.08;;;;;;;11.58;90.19;99992.00;4926822;29;20049;-68
2023/12/28 07:59:36;;;;;;;1.20;0.98;;;;;;;11.68;88.90;99983.22;4925799;29;20051;-69
2023/12/28 08:02:02;;;;;;;0.82;0.80;;;;;;;11.50;89.72;99990.41;4928596;29;20042;-69
2023/12/28 08:04:27;;;;;;;1.20;1.10;;;;;;;11.61;88.81;99977.78;4911617;29;20032;-69
2023/12/28 08:06:53;;;;;;;1.00;0.90;;;;;;;11.63;88.36;99988.97;4918152;29;20039;-68
2023/12/28 08:09:18;;;;;;;1.38;0.93;;;;;;;11.62;88.97;99988.19;4920173;29;20079;-68
2023/12/28 08:11:43;;;;;;;1.60;0.85;;;;;;;11.40;89.73;99975.72;4915487;29;20145;-68
2023/12/28 08:14:09;;;;;;;3.17;1.75;;;;;;;11.59;89.09;99983.53;4927049;29;20039;-69
2023/12/28 08:16:35;;;;;;;3.95;1.13;;;;;;;11.72;88.41;99997.50;4926201;29;20048;-68
2023/12/28 08:19:01;;;;;;;1.30;1.08;;;;;;;11.68;87.97;99994.78;4918663;29;20050;-68
2023/12/28 08:21:26;;;;;;;2.55;0.82;;;;;;;11.71;88.12;99983.22;4920843;29;20467;-68
2023/12/28 08:23:52;;;;;;;1.38;1.00;;;;;;;11.73;88.00;100001.72;4903610;29;20035;-69
2023/12/28 08:26:17;;;;;;;3.50;1.33;;;;;;;11.83;87.74;99990.22;4915311;29;20517;-69
2023/12/28 08:28:43;;;;;;;1.52;0.95;;;;;;;11.82;87.88;99991.38;4922035;29;20047;-69
2023/12/28 08:31:09;;;;;;;5.53;1.08;;;;;;;11.87;87.53;99992.94;4920391;29;20039;-69
2023/12/28 08:33:38;;;;;;;2.80;1.20;;;;;;;11.70;88.29;99989.78;4919183;29;20031;-69
2023/12/28 08:36:05;;;;;;;2.38;0.95;;;;;;;11.87;88.61;99976.75;4906003;29;20500;-69
2023/12/28 08:38:31;;;;;;;1.42;0.77;;;;;;;11.76;88.04;99982.88;4919512;29;20078;-70
2023/12/28 08:40:56;;;;;;;1.58;0.60;;;;;;;11.95;87.53;99981.78;4924423;29;20410;-70
2023/12/28 08:43:22;;;;;;;1.50;1.10;;;;;;;12.07;86.73;99975.28;4928139;29;20063;-70
2023/12/28 08:45:47;;;;;;;1.73;0.98;;;;;;;12.08;86.33;99988.38;4928219;29;20217;-71
2023/12/28 08:48:13;;;;;;;0.88;0.85;;;;;;;12.04;86.82;99981.44;4928907;29;20054;-70
2023/12/28 08:50:38;;;;;;;1.10;1.00;;;;;;;12.09;86.30;99968.34;4901841;29;20515;-69
2023/12/28 08:53:04;;;;;;;5.95;0.82;;;;;;;12.13;86.27;99966.44;4919968;29;20039;-69
2023/12/28 08:55:29;;;;;;;3.55;0.77;;;;;;;12.20;86.47;99973.78;4921220;29;20083;-69
2023/12/28 08:57:55;;;;;;;2.65;1.23;;;;;;;12.17;85.97;99969.16;4897615;29;20083;-69
2023/12/28 09:00:21;;;;;;;8.65;0.70;;;;;;;12.20;86.43;99982.66;4921930;29;20514;-68
2023/12/28 09:02:46;;;;;;;0.70;0.70;;;;;;;12.08;86.22;99977.59;4928577;29;20118;-68
2023/12/28 09:05:11;;;;;;;0.70;0.70;;;;;;;12.19;86.50;99981.13;4927883;29;20410;-69
2023/12/28 09:07:42;;;;;;;2.33;0.90;;;;;;;12.19;86.31;99985.72;4923362;29;20047;-69
2023/12/28 09:10:12;;;;;;;2.88;0.85;;;;;;;12.13;86.73;99982.63;4925377;29;20047;-69
2023/12/28 09:12:40;;;;;;;1.95;1.05;;;;;;;12.25;85.75;99978.81;4929589;28;20067;-68
2023/12/28 09:15:06;;;;;;;1.30;1.00;;;;;;;12.10;86.46;99977.97;4910017;29;20063;-68
2023/12/28 09:17:32;;;;;;;3.08;0.82;;;;;;;12.26;85.62;99972.25;4923839;29;20039;-68
2023/12/28 09:19:58;;;;;;;1.38;0.75;;;;;;;12.42;85.74;99981.56;4920655;29;20046;-68
2023/12/28 09:22:24;;;;;;;1.05;0.93;;;;;;;12.49;84.77;99992.34;4919931;29;20077;-69
2023/12/28 09:24:49;;;;;;;6.60;0.68;;;;;;;12.39;85.17;99984.22;4921259;29;20048;-69
2023/12/28 09:27:15;;;;;;;2.80;1.20;;;;;;;12.33;85.51;99977.69;4922849;29;20043;-70
2023/12/28 09:29:40;;;;;;;3.22;1.00;;;;;;;12.42;84.94;99978.84;4922587;29;20035;-69
2023/12/28 09:32:06;;;;;;;3.15;1.67;;;;;;;12.52;84.42;99988.88;4921248;29;20102;-69
2023/12/28 09:34:32;;;;;;;1.70;0.90;;;;;;;12.58;84.80;99978.50;4915483;29;20066;-69
2023/12/28 09:36:57;;;;;;;0.47;0.43;;;;;;;12.55;84.39;99987.34;4919391;29;20471;-68
2023/12/28 09:39:22;;;;;;;1.67;0.90;;;;;;;12.56;84.69;99997.00;4926663;29;20066;-70
2023/12/28 09:42:13;;;;;;;1.13;0.73;;;;;;;12.68;84.06;99981.19;4929335;28;20095;-69
2023/12/28 09:44:43;;;;;;;0.80;0.57;;;;;;;12.55;84.43;99982.72;4915804;29;20839;-69
2023/12/28 09:47:12;;;;;;;0.50;0.50;;;;;;;12.54;83.30;99996.63;4918426;29;20054;-69
2023/12/28 09:49:40;;;;;;;1.88;0.75;;;;;;;12.56;83.89;99988.91;4919956;29;20051;-68
2023/12/28 09:52:06;;;;;;;1.55;0.82;;;;;;;12.70;83.06;100008.59;4918606;29;20484;-68
2023/12/28 09:54:31;;;;;;;4.20;0.70;;;;;;;12.70;83.12;99981.56;4940248;29;20035;-68
2023/12/28 09:56:57;;;;;;;1.98;0.50;;;;;;;12.87;82.25;99990.09;4926259;29;20042;-68
2023/12/28 09:59:24;;;;;;;0.73;0.70;;;;;;;12.97;82.01;99986.59;4928064;29;20031;-68
2023/12/28 10:01:49;;;;;;;2.08;1.00;;;;;;;12.91;81.31;99980.03;4928717;29;20048;-69
2023/12/28 10:04:16;;;;;;;5.70;0.80;;;;;;;12.96;81.47;99985.06;4928686;29;20184;-69
2023/12/28 10:06:41;;;;;;;2.10;0.80;;;;;;;12.88;81.83;99975.41;4922803;29;20035;-68
2023/12/28 10:09:07;;;;;;;2.13;0.80;;;;;;;12.67;82.54;99982.34;4918295;29;20031;-69
2023/12/28 10:11:33;;;;;;;4.45;0.88;;;;;;;12.92;80.71;99974.25;4920605;29;20083;-71
2023/12/28 10:13:59;;;;;;;3.70;0.80;;;;;;;12.92;81.11;99970.75;4921802;29;20027;-69
2023/12/28 10:16:26;;;;;;;0.93;0.80;;;;;;;12.96;80.81;99960.72;4927441;29;20027;-68
2023/12/28 10:18:52;;;;;;;2.20;0.70;;;;;;;13.04;80.50;99959.59;4909476;29;20035;-68
2023/12/28 10:21:18;;;;;;;2.75;0.47;;;;;;;13.01;80.40;99982.72;4905846;29;20054;-69
2023/12/28 10:23:43;;;;;;;3.53;1.00;;;;;;;12.98;80.00;99964.59;4923784;29;20035;-69
2023/12/28 10:26:10;;;;;;;2.30;0.88;;;;;;;12.94;80.14;99957.63;4925495;29;20036;-69
2023/12/28 10:28:39;;;;;;;0.43;0.43;;;;;;;12.96;80.96;99955.31;4928052;29;20032;-69
2023/12/28 10:31:05;;;;;;;2.00;0.60;;;;;;;13.00;80.23;99975.00;4929036;29;20046;-69
2023/12/28 10:33:37;;;;;;;3.13;0.50;;;;;;;12.83;81.05;99967.69;4926919;29;20038;-69
2023/12/28 10:36:07;;;;;;;0.55;0.55;;;;;;;13.01;80.35;99963.81;4925140;29;20051;-69
2023/12/28 10:38:37;;;;;;;9.82;1.48;;;;;;;12.90;80.67;99967.69;4924782;29;20986;-69
2023/12/28 10:41:08;;;;;;;1.23;0.80;;;;;;;12.92;80.75;99971.53;4912885;29;20442;-69
2023/12/28 10:43:44;;;;;;;6.40;1.08;;;;;;;12.98;79.57;99969.22;4923859;29;20035;-69
2023/12/28 10:46:10;;;;;;;1.55;0.43;;;;;;;12.80;80.97;99974.63;4923558;29;20040;-69
2023/12/28 10:48:39;;;;;;;0.98;0.50;;;;;;;12.69;82.44;99982.75;4927752;29;20063;-69
2023/12/28 10:51:10;;;;;;;0.40;0.40;;;;;;;13.02;80.25;99970.00;4929639;29;20395;-69
2023/12/28 10:53:51;;;;;;;1.05;0.60;;;;;;;13.01;80.36;99984.66;4929133;29;20040;-69
2023/12/28 10:56:41;;;;;;;0.70;0.70;;;;;;;12.92;80.54;99976.16;4928148;29;20219;-69
2023/12/28 10:59:22;;;;;;;1.30;0.40;;;;;;;13.09;79.64;99973.50;4929426;29;20106;-69
2023/12/28 11:01:51;;;;;;;0.80;0.60;;;;;;;12.98;80.52;99967.28;4925674;29;20411;-69
2023/12/28 11:04:55;;;;;;;1.45;0.60;;;;;;;13.02;80.18;99970.00;4930253;29;20487;-69
2023/12/28 11:07:21;;;;;;;2.78;0.98;;;;;;;12.87;80.74;99984.69;4931491;29;20853;-69
2023/12/28 11:09:47;;;;;;;0.38;0.38;;;;;;;13.01;80.31;99981.94;4930348;28;20407;-69
2023/12/28 11:12:17;;;;;;;3.08;0.52;;;;;;;12.92;80.43;99974.25;4927028;29;20509;-70
2023/12/28 11:14:43;;;;;;;0.28;0.28;;;;;;;13.00;80.54;99988.53;4941342;29;20035;-69
2023/12/28 11:17:10;;;;;;;0.98;0.38;;;;;;;13.04;80.15;99978.50;4928657;29;20391;-70
2023/12/28 11:19:37;;;;;;;0.73;0.60;;;;;;;13.20;79.58;99968.06;4930302;29;20267;-70
2023/12/28 11:22:03;;;;;;;1.40;0.70;;;;;;;13.32;78.61;99968.44;4932468;29;20054;-70
2023/12/28 11:24:30;;;;;;;4.53;1.40;;;;;;;13.40;78.59;99969.19;4931457;29;20032;-69
2023/12/28 11:26:56;;;;;;;1.05;0.47;;;;;;;13.22;79.20;99981.97;4958522;28;20039;-69
2023/12/28 11:29:23;;;;;;;5.25;0.55;;;;;;;13.19;78.79;99980.03;4913320;29;20039;-69
2023/12/28 11:31:53;;;;;;;2.92;0.73;;;;;;;13.34;78.37;99970.72;4928713;29;20078;-69